createdAt,value
2023-01-20T00:01:12.125Z,10.13
2023-01-20T00:03:40.640Z,9.83
2023-01-20T00:06:09.656Z,9.63
2023-01-20T00:08:39.719Z,10.60
2023-01-20T00:11:09.247Z,7.47
2023-01-20T00:13:38.075Z,8.13
2023-01-20T00:16:07.762Z,9.70
2023-01-20T00:18:36.132Z,9.57
2023-01-20T00:21:05.455Z,9.20
2023-01-20T00:23:33.928Z,11.20
2023-01-20T00:26:06.834Z,9.93
2023-01-20T00:28:35.934Z,9.40
2023-01-20T00:31:14.885Z,8.53
2023-01-20T00:33:43.185Z,12.63
2023-01-20T00:36:12.515Z,9.67
2023-01-20T00:38:40.988Z,9.10
2023-01-20T00:41:11.336Z,9.47
2023-01-20T00:43:39.907Z,9.17
2023-01-20T00:46:08.887Z,9.67
2023-01-20T00:48:37.695Z,11.10
2023-01-20T00:51:07.273Z,9.23
2023-01-20T00:53:35.463Z,9.00
2023-01-20T00:56:04.085Z,10.87
2023-01-20T00:58:33.526Z,10.03
2023-01-20T01:01:02.206Z,12.23
2023-01-20T01:03:30.756Z,9.53
2023-01-20T01:06:08.065Z,9.83
2023-01-20T01:08:36.438Z,10.20
2023-01-20T01:11:05.233Z,10.13
2023-01-20T01:13:35.128Z,11.60
2023-01-20T01:16:03.275Z,10.27
2023-01-20T01:18:31.412Z,10.07
2023-01-20T01:20:59.452Z,11.03
2023-01-20T01:23:27.608Z,10.40
2023-01-20T01:25:55.682Z,9.80
2023-01-20T01:28:23.724Z,9.67
2023-01-20T01:30:53.175Z,8.47
2023-01-20T01:33:21.297Z,11.00
2023-01-20T01:35:56.651Z,10.90
2023-01-20T01:38:25.335Z,11.17
2023-01-20T01:40:54.978Z,8.93
2023-01-20T01:43:25.844Z,7.90
2023-01-20T01:45:55.520Z,7.87
2023-01-20T01:48:27.227Z,8.30
2023-01-20T01:50:59.413Z,7.57
2023-01-20T01:53:30.279Z,7.20
2023-01-20T01:56:01.431Z,7.10
2023-01-20T01:58:33.597Z,7.10
2023-01-20T02:01:03.115Z,8.40
2023-01-20T02:03:40.911Z,6.47
2023-01-20T02:06:10.468Z,6.87
2023-01-20T02:08:39.157Z,6.43
2023-01-20T02:11:07.490Z,7.90
2023-01-20T02:13:36.314Z,8.00
2023-01-20T02:16:15.337Z,7.40
2023-01-20T02:18:59.702Z,7.00
2023-01-20T02:21:50.646Z,7.20
2023-01-20T02:24:58.879Z,7.73
2023-01-20T02:27:42.355Z,7.80
2023-01-20T02:30:42.600Z,6.60
2023-01-20T02:33:16.395Z,6.67
2023-01-20T02:35:48.179Z,8.30
2023-01-20T02:38:27.349Z,6.73
2023-01-20T02:40:59.718Z,6.87
2023-01-20T02:43:35.392Z,8.70
2023-01-20T02:46:11.653Z,8.63
2023-01-20T02:48:45.511Z,6.67
2023-01-20T02:51:18.233Z,7.37
2023-01-20T02:53:50.437Z,6.40
2023-01-20T02:56:20.852Z,7.27
2023-01-20T02:58:51.729Z,7.60
2023-01-20T03:01:26.854Z,7.50
2023-01-20T03:04:00.463Z,6.60
2023-01-20T03:06:34.134Z,7.50
2023-01-20T03:09:05.941Z,6.93
2023-01-20T03:11:36.903Z,6.23
2023-01-20T03:14:08.352Z,7.77
2023-01-20T03:16:37.196Z,8.47
2023-01-20T03:19:06.605Z,7.93
2023-01-20T03:21:35.194Z,7.10
2023-01-20T03:24:05.554Z,6.40
2023-01-20T03:26:33.940Z,7.40
2023-01-20T03:29:06.059Z,8.30
2023-01-20T03:31:38.215Z,8.27
2023-01-20T03:34:12.664Z,6.57
2023-01-20T03:36:42.251Z,8.90
2023-01-20T03:39:10.491Z,7.47
2023-01-20T03:41:50.954Z,6.80
2023-01-20T03:44:24.897Z,7.30
2023-01-20T03:46:58.418Z,9.20
2023-01-20T03:49:34.888Z,8.00
2023-01-20T03:52:05.842Z,7.03
2023-01-20T03:54:39.210Z,10.53
2023-01-20T03:57:12.364Z,6.00
2023-01-20T03:59:43.142Z,7.23
2023-01-20T04:02:13.087Z,6.80
2023-01-20T04:04:45.572Z,6.70
2023-01-20T04:07:19.334Z,6.30
2023-01-20T04:09:51.982Z,7.67
2023-01-20T04:12:20.447Z,6.93
2023-01-20T04:14:48.614Z,7.27
2023-01-20T04:17:17.158Z,6.07
2023-01-20T04:19:46.635Z,6.87
2023-01-20T04:22:21.764Z,7.40
2023-01-20T04:24:54.061Z,7.27
2023-01-20T04:27:22.141Z,7.07
2023-01-20T04:29:50.293Z,7.93
2023-01-20T04:32:18.370Z,7.00
2023-01-20T04:34:47.834Z,6.60
2023-01-20T04:37:15.874Z,7.80
2023-01-20T04:39:43.992Z,6.33
2023-01-20T04:42:12.191Z,7.67
2023-01-20T04:44:40.245Z,7.17
2023-01-20T04:47:09.037Z,8.77
2023-01-20T04:49:37.270Z,7.20
2023-01-20T04:52:06.824Z,6.73
2023-01-20T04:54:35.071Z,7.50
2023-01-20T04:57:03.163Z,6.93
2023-01-20T04:59:31.303Z,6.77
2023-01-20T05:01:59.501Z,7.90
2023-01-20T05:04:27.540Z,7.77
2023-01-20T05:06:55.663Z,7.60
2023-01-20T05:09:25.108Z,8.83
2023-01-20T05:11:53.427Z,7.60
2023-01-20T05:14:21.559Z,6.23
2023-01-20T05:16:49.660Z,7.73
2023-01-20T05:19:17.854Z,7.23
2023-01-20T05:21:45.993Z,7.50
2023-01-20T05:24:14.127Z,8.07
2023-01-20T05:26:43.554Z,8.13
2023-01-20T05:29:11.683Z,8.10
2023-01-20T05:31:43.234Z,7.23
2023-01-20T05:34:12.068Z,7.63
2023-01-20T05:36:40.180Z,7.23
2023-01-20T05:39:08.428Z,8.13
2023-01-20T05:41:36.482Z,8.43
2023-01-20T05:44:06.209Z,8.23
2023-01-20T05:46:34.405Z,10.23
2023-01-20T05:49:03.327Z,10.27
2023-01-20T05:51:32.155Z,11.03
2023-01-20T05:54:00.500Z,9.90
2023-01-20T05:56:28.496Z,13.70
2023-01-20T05:58:57.299Z,13.90
2023-01-20T06:01:26.930Z,14.30
2023-01-20T06:03:55.305Z,12.77
2023-01-20T06:06:23.437Z,14.93
2023-01-20T06:08:53.663Z,16.37
2023-01-20T06:11:22.078Z,18.20
2023-01-20T06:13:50.561Z,17.10
2023-01-20T06:16:19.673Z,15.20
2023-01-20T06:18:49.253Z,14.20
2023-01-20T06:21:17.284Z,16.10
2023-01-20T06:23:45.406Z,15.57
2023-01-20T06:26:15.119Z,14.53
2023-01-20T06:28:43.306Z,15.50
2023-01-20T06:31:13.188Z,14.00
2023-01-20T06:33:41.782Z,14.33
2023-01-20T06:36:13.613Z,18.17
2023-01-20T06:38:41.988Z,17.63
2023-01-20T06:41:11.424Z,15.30
2023-01-20T06:43:41.911Z,14.27
2023-01-20T06:46:13.542Z,17.10
2023-01-20T06:48:42.163Z,16.03
2023-01-20T06:51:13.961Z,16.17
2023-01-20T06:53:42.759Z,15.90
2023-01-20T06:56:12.709Z,14.47
2023-01-20T06:58:41.646Z,15.37
2023-01-20T07:01:12.800Z,14.10
2023-01-20T07:03:43.435Z,16.53
2023-01-20T07:06:18.687Z,15.27
2023-01-20T07:08:47.338Z,16.03
2023-01-20T07:11:15.717Z,15.73
2023-01-20T07:13:44.005Z,17.00
2023-01-20T07:16:15.398Z,19.73
2023-01-20T07:18:44.060Z,17.57
2023-01-20T07:21:13.021Z,17.20
2023-01-20T07:23:42.524Z,17.77
2023-01-20T07:26:12.751Z,16.40
2023-01-20T07:28:41.248Z,16.77
2023-01-20T07:31:11.255Z,17.10
2023-01-20T07:33:40.070Z,16.67
2023-01-20T07:36:09.578Z,20.00
2023-01-20T07:38:37.751Z,20.37
2023-01-20T07:41:10.793Z,16.73
2023-01-20T07:43:38.846Z,15.10
2023-01-20T07:46:07.169Z,20.07
2023-01-20T07:48:35.515Z,17.03
2023-01-20T07:51:06.483Z,15.00
2023-01-20T07:53:36.337Z,17.33
2023-01-20T07:56:06.543Z,18.43
2023-01-20T07:58:36.580Z,14.43
2023-01-20T08:01:09.245Z,18.87
2023-01-20T08:03:37.622Z,16.90
2023-01-20T08:06:06.405Z,16.30
2023-01-20T08:08:34.875Z,19.37
2023-01-20T08:11:03.854Z,15.57
2023-01-20T08:13:33.105Z,12.97
2023-01-20T08:16:03.969Z,14.97
2023-01-20T08:18:33.361Z,16.83
2023-01-20T08:21:01.778Z,15.87
2023-01-20T08:23:29.909Z,12.47
2023-01-20T08:25:59.838Z,16.40
2023-01-20T08:28:28.287Z,14.80
2023-01-20T08:30:57.177Z,13.00
2023-01-20T08:33:26.772Z,15.40
2023-01-20T08:35:56.747Z,16.10
2023-01-20T08:38:24.911Z,15.40
2023-01-20T08:40:53.103Z,16.20
2023-01-20T08:43:21.350Z,13.73
2023-01-20T08:45:58.778Z,16.13
2023-01-20T08:48:28.289Z,17.10
2023-01-20T08:50:56.668Z,14.27
2023-01-20T08:53:24.708Z,16.70
2023-01-20T08:55:57.113Z,18.90
2023-01-20T08:58:25.561Z,13.57
2023-01-20T09:00:53.941Z,15.83
2023-01-20T09:03:22.431Z,16.47
2023-01-20T09:05:51.956Z,14.50
2023-01-20T09:08:20.905Z,13.33
2023-01-20T09:10:49.004Z,14.27
2023-01-20T09:13:17.151Z,16.03
2023-01-20T09:15:45.321Z,16.40
2023-01-20T09:18:13.679Z,14.47
2023-01-20T09:20:41.840Z,11.40
2023-01-20T09:23:11.456Z,14.30
2023-01-20T09:25:39.531Z,13.57
2023-01-20T09:28:07.606Z,15.13
2023-01-20T09:30:35.729Z,14.67
2023-01-20T09:33:03.878Z,14.63
2023-01-20T09:35:31.935Z,14.20
2023-01-20T09:38:17.426Z,17.90
2023-01-20T09:41:18.569Z,14.20
2023-01-20T09:43:55.169Z,13.27
2023-01-20T09:46:33.826Z,11.40
2023-01-20T09:49:30.782Z,15.20
2023-01-20T09:52:24.870Z,13.10
2023-01-20T09:54:59.841Z,12.10
2023-01-20T09:57:34.743Z,12.53
2023-01-20T10:00:09.351Z,12.50
2023-01-20T10:02:38.231Z,11.60
2023-01-20T10:05:13.650Z,12.37
2023-01-20T10:07:51.731Z,12.83
2023-01-20T10:10:25.195Z,12.73
2023-01-20T10:12:59.270Z,13.67
2023-01-20T10:15:29.982Z,11.77
2023-01-20T10:18:01.524Z,13.10
2023-01-20T10:20:35.153Z,11.20
2023-01-20T10:23:09.459Z,12.33
2023-01-20T10:25:42.867Z,12.20
2023-01-20T10:28:15.853Z,13.17
2023-01-20T10:30:47.328Z,15.47
2023-01-20T10:33:20.933Z,12.17
2023-01-20T10:35:52.333Z,16.33
2023-01-20T10:38:27.011Z,12.17
2023-01-20T10:41:01.259Z,14.23
2023-01-20T10:43:31.563Z,11.97
2023-01-20T10:46:15.685Z,12.63
2023-01-20T10:49:09.450Z,14.67
2023-01-20T10:51:46.500Z,14.67
2023-01-20T10:54:23.687Z,12.57
2023-01-20T10:56:54.406Z,13.07
2023-01-20T10:59:30.240Z,11.10
2023-01-20T11:02:11.574Z,13.17
2023-01-20T11:04:40.719Z,12.70
2023-01-20T11:07:16.319Z,11.60
2023-01-20T11:09:44.841Z,12.20
2023-01-20T11:12:18.205Z,12.23
2023-01-20T11:14:48.972Z,11.27
2023-01-20T11:17:20.275Z,10.83
2023-01-20T11:19:51.155Z,10.60
2023-01-20T11:22:29.178Z,11.03
2023-01-20T11:24:59.690Z,10.90
2023-01-20T11:27:42.336Z,10.40
2023-01-20T11:30:24.746Z,9.20
2023-01-20T11:33:08.951Z,8.63
2023-01-20T11:35:37.327Z,11.10
2023-01-20T11:38:24.158Z,8.60
2023-01-20T11:40:56.202Z,10.53
2023-01-20T11:43:32.764Z,8.93
2023-01-20T11:46:16.260Z,8.50
2023-01-20T11:48:44.508Z,8.17
2023-01-20T11:51:21.657Z,7.87
2023-01-20T11:53:50.104Z,7.93
2023-01-20T11:56:21.332Z,7.87
2023-01-20T11:58:56.744Z,7.50
2023-01-20T12:01:28.361Z,7.10
2023-01-20T12:04:19.113Z,8.00
2023-01-20T12:06:53.450Z,7.00
2023-01-20T12:09:26.884Z,6.77
2023-01-20T12:11:58.242Z,7.63
2023-01-20T12:14:30.721Z,7.43
2023-01-20T12:17:12.079Z,7.27
2023-01-20T12:19:54.509Z,6.93
2023-01-20T12:22:27.338Z,6.27
2023-01-20T12:25:08.716Z,7.70
2023-01-20T12:27:42.090Z,7.97
2023-01-20T12:30:23.400Z,8.70
2023-01-20T12:32:53.116Z,7.50
2023-01-20T12:35:24.545Z,7.83
2023-01-20T12:37:56.703Z,8.17
2023-01-20T12:40:36.614Z,8.53
2023-01-20T12:43:40.675Z,7.17
2023-01-20T12:46:33.236Z,8.97
2023-01-20T12:49:21.520Z,10.93
2023-01-20T12:52:02.646Z,9.77
2023-01-20T12:55:03.730Z,8.50
2023-01-20T12:57:44.698Z,11.00
2023-01-20T13:00:32.604Z,12.80
2023-01-20T13:03:34.896Z,8.50
2023-01-20T13:06:24.752Z,9.50
2023-01-20T13:09:04.102Z,11.50
2023-01-20T13:11:48.647Z,10.77
2023-01-20T13:14:21.566Z,12.30
2023-01-20T13:16:55.743Z,12.87
2023-01-20T13:19:30.540Z,12.20
2023-01-20T13:22:10.045Z,12.93
2023-01-20T13:24:39.656Z,14.97
2023-01-20T13:27:08.040Z,15.00
2023-01-20T13:29:55.938Z,12.03
2023-01-20T13:32:29.235Z,14.73
2023-01-20T13:34:59.113Z,15.40
2023-01-20T13:37:34.645Z,18.37
2023-01-20T13:40:03.314Z,15.33
2023-01-20T13:42:51.949Z,16.03
2023-01-20T13:45:26.142Z,17.97
2023-01-20T13:48:23.652Z,18.63
2023-01-20T13:50:53.848Z,16.90
2023-01-20T13:53:32.313Z,17.67
2023-01-20T13:56:28.888Z,20.77
2023-01-20T13:58:58.116Z,18.13
2023-01-20T14:01:27.044Z,20.00
2023-01-20T14:04:05.843Z,19.60
2023-01-20T14:06:36.009Z,16.63
2023-01-20T14:09:19.704Z,18.37
2023-01-20T14:11:51.558Z,20.17
2023-01-20T14:14:21.498Z,20.50
2023-01-20T14:16:50.022Z,23.23
2023-01-20T14:19:24.817Z,23.70
2023-01-20T14:21:55.270Z,22.57
2023-01-20T14:24:29.651Z,20.70
2023-01-20T14:27:08.507Z,22.83
2023-01-20T14:29:36.654Z,22.30
2023-01-20T14:32:18.072Z,22.57
2023-01-20T14:34:47.889Z,24.70
2023-01-20T14:37:28.518Z,22.53
2023-01-20T14:40:00.437Z,21.83
2023-01-20T14:42:31.103Z,19.50
2023-01-20T14:44:59.277Z,25.83
2023-01-20T14:47:28.498Z,22.73
2023-01-20T14:49:56.887Z,24.27
2023-01-20T14:52:29.607Z,22.80
2023-01-20T14:54:59.400Z,24.10
2023-01-20T14:57:30.115Z,24.57
2023-01-20T15:00:22.087Z,23.47
2023-01-20T15:03:09.559Z,25.93
2023-01-20T15:05:40.335Z,27.13
2023-01-20T15:08:25.296Z,27.00
2023-01-20T15:11:31.264Z,28.33
2023-01-20T15:14:10.276Z,25.73
2023-01-20T15:16:49.201Z,28.40
2023-01-20T15:19:46.141Z,34.53
2023-01-20T15:22:20.482Z,23.50
2023-01-20T15:24:49.637Z,25.87
2023-01-20T15:27:28.719Z,24.03
2023-01-20T15:30:02.623Z,23.37
2023-01-20T15:32:30.812Z,29.23
2023-01-20T15:34:58.964Z,27.83
2023-01-20T15:37:27.115Z,23.50
2023-01-20T15:39:55.318Z,28.20
2023-01-20T15:42:24.302Z,22.50
2023-01-20T15:44:53.895Z,27.10
2023-01-20T15:47:31.245Z,29.03
2023-01-20T15:49:59.752Z,28.73
2023-01-20T15:52:28.038Z,27.10
2023-01-20T15:54:56.233Z,27.63
2023-01-20T15:57:24.430Z,30.60
2023-01-20T15:59:53.926Z,24.87
2023-01-20T16:02:24.231Z,25.50
2023-01-20T16:04:52.399Z,23.83
2023-01-20T16:07:22.098Z,25.23
2023-01-20T16:09:50.394Z,25.50
2023-01-20T16:12:19.571Z,32.10
2023-01-20T16:14:47.624Z,24.83
2023-01-20T16:17:19.126Z,27.03
2023-01-20T16:19:47.417Z,28.00
2023-01-20T16:22:15.855Z,27.47
2023-01-20T16:24:44.038Z,26.27
2023-01-20T16:27:18.021Z,30.70
2023-01-20T16:29:46.216Z,27.77
2023-01-20T16:32:18.740Z,28.03
2023-01-20T16:34:48.062Z,32.93
2023-01-20T16:37:16.198Z,28.80
2023-01-20T16:39:44.490Z,27.00
2023-01-20T16:42:13.499Z,23.90
2023-01-20T16:44:41.714Z,28.37
2023-01-20T16:47:09.990Z,28.77
2023-01-20T16:49:39.622Z,30.20
2023-01-20T16:52:08.019Z,30.93
2023-01-20T16:54:36.123Z,31.27
2023-01-20T16:57:04.267Z,28.33
2023-01-20T16:59:32.624Z,32.90
2023-01-20T17:02:00.762Z,28.20
2023-01-20T17:04:29.437Z,29.33
2023-01-20T17:06:58.937Z,30.40
2023-01-20T17:09:27.133Z,32.67
2023-01-20T17:11:55.274Z,30.00
2023-01-20T17:14:23.421Z,25.40
2023-01-20T17:16:51.583Z,26.60
2023-01-20T17:19:19.979Z,34.33
2023-01-20T17:21:48.173Z,30.87
2023-01-20T17:24:17.830Z,27.33
2023-01-20T17:26:46.081Z,33.13
2023-01-20T17:29:14.491Z,30.90
2023-01-20T17:31:42.969Z,33.50
2023-01-20T17:34:12.511Z,32.90
2023-01-20T17:36:40.621Z,29.87
2023-01-20T17:39:09.216Z,30.07
2023-01-20T17:41:38.667Z,27.77
2023-01-20T17:44:07.349Z,27.27
2023-01-20T17:46:35.470Z,28.97
2023-01-20T17:49:06.988Z,27.13
2023-01-20T17:51:35.388Z,33.10
2023-01-20T17:54:04.274Z,30.07
2023-01-20T17:56:32.851Z,32.80
2023-01-20T17:59:02.291Z,32.20
2023-01-20T18:01:32.638Z,31.87
2023-01-20T18:04:03.995Z,28.67
2023-01-20T18:06:35.017Z,33.37
2023-01-20T18:09:03.153Z,36.40
2023-01-20T18:11:33.326Z,33.57
2023-01-20T18:14:03.943Z,28.70
2023-01-20T18:16:34.087Z,33.77
2023-01-20T18:19:02.717Z,36.93
2023-01-20T18:21:32.796Z,36.70
2023-01-20T18:24:02.266Z,37.07
2023-01-20T18:26:32.592Z,32.97
2023-01-20T18:29:03.612Z,34.37
2023-01-20T18:31:33.613Z,38.50
2023-01-20T18:34:04.276Z,32.47
2023-01-20T18:36:34.653Z,34.10
2023-01-20T18:39:04.488Z,29.90
2023-01-20T18:41:36.599Z,34.97
2023-01-20T18:44:07.662Z,34.50
2023-01-20T18:46:37.624Z,35.67
2023-01-20T18:49:09.284Z,36.50
2023-01-20T18:51:38.332Z,36.17
2023-01-20T18:54:10.419Z,34.50
2023-01-20T18:56:39.099Z,32.00
2023-01-20T18:59:09.183Z,35.37
2023-01-20T19:01:39.825Z,30.90
2023-01-20T19:04:09.853Z,32.77
2023-01-20T19:06:39.779Z,32.67
2023-01-20T19:09:08.485Z,30.40
2023-01-20T19:11:39.612Z,27.03
2023-01-20T19:14:11.706Z,27.30
2023-01-20T19:16:45.055Z,27.70
2023-01-20T19:19:13.916Z,29.80
2023-01-20T19:21:42.323Z,32.00
2023-01-20T19:24:15.161Z,33.77
2023-01-20T19:26:43.344Z,32.30
2023-01-20T19:29:15.746Z,30.30
2023-01-20T19:31:44.066Z,28.37
2023-01-20T19:34:12.737Z,29.07
2023-01-20T19:36:40.971Z,30.20
2023-01-20T19:39:09.125Z,28.90
2023-01-20T19:41:38.877Z,26.83
2023-01-20T19:44:07.787Z,28.20
2023-01-20T19:46:39.405Z,33.27
2023-01-20T19:49:07.969Z,31.17
2023-01-20T19:51:36.518Z,30.07
2023-01-20T19:54:05.986Z,28.33
2023-01-20T19:56:36.324Z,30.33
2023-01-20T19:59:06.017Z,29.00
2023-01-20T20:01:35.905Z,28.00
2023-01-20T20:04:08.135Z,24.80
2023-01-20T20:06:37.996Z,31.90
2023-01-20T20:09:07.879Z,28.93
2023-01-20T20:11:36.466Z,34.10
2023-01-20T20:14:06.876Z,23.60
2023-01-20T20:16:36.491Z,31.47
2023-01-20T20:19:09.005Z,29.80
2023-01-20T20:21:37.130Z,28.77
2023-01-20T20:24:06.313Z,30.13
2023-01-20T20:26:37.104Z,29.97
2023-01-20T20:29:07.113Z,33.60
2023-01-20T20:31:37.576Z,30.00
2023-01-20T20:34:09.632Z,29.30
2023-01-20T20:36:37.784Z,29.33
2023-01-20T20:39:06.155Z,29.43
2023-01-20T20:41:36.433Z,32.30
2023-01-20T20:44:05.166Z,32.63
2023-01-20T20:46:33.352Z,28.47
2023-01-20T20:49:02.578Z,28.33
2023-01-20T20:51:34.111Z,29.50
2023-01-20T20:54:04.090Z,27.87
2023-01-20T20:56:32.997Z,29.07
2023-01-20T20:59:03.707Z,28.73
2023-01-20T21:01:34.316Z,27.70
2023-01-20T21:04:03.234Z,31.37
2023-01-20T21:06:33.608Z,32.83
2023-01-20T21:09:01.917Z,30.97
2023-01-20T21:11:30.434Z,28.53
2023-01-20T21:13:58.705Z,30.63
2023-01-20T21:16:28.065Z,33.23
2023-01-20T21:18:57.440Z,33.27
2023-01-20T21:21:26.131Z,28.87
2023-01-20T21:23:56.909Z,31.37
2023-01-20T21:26:29.811Z,32.93
2023-01-20T21:29:01.841Z,27.80
2023-01-20T21:31:31.199Z,30.33
2023-01-20T21:34:00.924Z,33.90
2023-01-20T21:36:30.188Z,30.77
2023-01-20T21:39:00.807Z,36.63
2023-01-20T21:41:28.944Z,31.80
2023-01-20T21:44:14.457Z,30.10
2023-01-20T21:46:42.751Z,26.53
2023-01-20T21:49:25.157Z,30.17
2023-01-20T21:52:10.771Z,31.17
2023-01-20T21:54:41.270Z,31.43
2023-01-20T21:57:10.173Z,32.77
2023-01-20T21:59:38.459Z,28.23
2023-01-20T22:02:07.466Z,28.93
2023-01-20T22:04:35.854Z,32.10
2023-01-20T22:07:03.992Z,31.97
2023-01-20T22:09:32.065Z,27.07
2023-01-20T22:12:01.558Z,27.90
2023-01-20T22:14:30.030Z,30.17
2023-01-20T22:16:58.873Z,29.87
2023-01-20T22:19:28.138Z,29.40
2023-01-20T22:21:56.787Z,26.50
2023-01-20T22:24:25.000Z,27.60
2023-01-20T22:26:53.151Z,22.77
2023-01-20T22:29:23.131Z,32.47
2023-01-20T22:31:52.931Z,37.63
2023-01-20T22:34:21.602Z,26.80
2023-01-20T22:36:49.897Z,29.30
2023-01-20T22:39:18.123Z,27.50
2023-01-20T22:41:46.212Z,30.43
2023-01-20T22:44:14.533Z,25.40
2023-01-20T22:46:44.091Z,30.60
2023-01-20T22:49:13.536Z,28.87
2023-01-20T22:51:41.964Z,27.73
2023-01-20T22:54:11.652Z,23.73
2023-01-20T22:56:40.200Z,33.73
2023-01-20T22:59:08.286Z,26.90
2023-01-20T23:01:37.307Z,29.50
2023-01-20T23:04:07.832Z,32.33
2023-01-20T23:06:37.144Z,32.77
2023-01-20T23:09:07.487Z,28.00
2023-01-20T23:11:38.301Z,28.13
2023-01-20T23:14:06.747Z,24.33
2023-01-20T23:16:34.970Z,29.50
2023-01-20T23:19:03.076Z,32.20
2023-01-20T23:21:32.836Z,27.00
2023-01-20T23:24:00.956Z,28.13
2023-01-20T23:26:31.179Z,27.13
2023-01-20T23:28:59.514Z,28.93
2023-01-20T23:31:28.708Z,35.47
2023-01-20T23:33:57.924Z,28.23
2023-01-20T23:36:27.331Z,31.10
2023-01-20T23:38:57.592Z,28.37
2023-01-20T23:41:26.352Z,30.90
2023-01-20T23:43:54.576Z,28.97
2023-01-20T23:46:22.644Z,29.57
2023-01-20T23:48:50.826Z,32.97
2023-01-20T23:51:19.016Z,28.83
2023-01-20T23:53:47.361Z,32.00
2023-01-20T23:56:19.099Z,30.33
2023-01-20T23:58:48.145Z,30.23
